Time;durP1;ratioP1;P1;durP2;ratioP2;P2;SDS_P1;SDS_P2;PMS_P1;PMS_P2;Temp;Humidity;BMP_temperature;BMP_pressure;BME280_temperature;BME280_humidity;BME280_pressure;Samples;Min_cycle;Max_cycle;Signal;HPM_P1;HPM_P2
2023/02/28 00:00:25;;;;;;;8.85;2.08;;;3.90;99.90;;;;;;5077668;28;20040;-65
2023/02/28 00:02:51;;;;;;;7.32;2.20;;;3.90;99.90;;;;;;5079397;28;20105;-65
2023/02/28 00:05:21;;;;;;;8.95;2.42;;;3.90;99.90;;;;;;5078902;28;20312;-66
2023/02/28 00:07:47;;;;;;;9.25;2.85;;;3.90;99.90;;;;;;5078987;28;20091;-66
2023/02/28 00:10:20;;;;;;;12.05;2.42;;;3.90;99.90;;;;;;5074221;28;20046;-66
2023/02/28 00:12:49;;;;;;;6.22;2.60;;;4.00;99.90;;;;;;5079909;28;20372;-66
2023/02/28 00:15:15;;;;;;;11.25;2.92;;;4.00;99.90;;;;;;5085788;28;20402;-67
2023/02/28 00:17:41;;;;;;;8.65;2.90;;;4.00;99.90;;;;;;5084910;28;20051;-66
2023/02/28 00:20:09;;;;;;;8.02;2.83;;;4.00;99.90;;;;;;5076531;28;20035;-67
2023/02/28 00:22:36;;;;;;;11.32;2.75;;;4.10;99.90;;;;;;5081332;28;20055;-65
2023/02/28 00:25:03;;;;;;;6.47;2.80;;;4.00;99.90;;;;;;5084491;28;20032;-66
2023/02/28 00:27:29;;;;;;;8.30;2.45;;;4.00;99.90;;;;;;5081996;28;20045;-66
2023/02/28 00:29:55;;;;;;;9.25;3.00;;;4.00;99.90;;;;;;5082466;28;20471;-66
2023/02/28 00:32:21;;;;;;;10.82;2.92;;;4.00;99.90;;;;;;5078083;28;20055;-66
2023/02/28 00:34:46;;;;;;;8.00;3.33;;;4.00;99.90;;;;;;5081582;28;20137;-66
2023/02/28 00:37:12;;;;;;;10.07;3.05;;;4.00;99.90;;;;;;5079457;28;20043;-66
2023/02/28 00:39:39;;;;;;;9.38;3.10;;;4.10;99.90;;;;;;5079743;28;20111;-67
2023/02/28 00:42:06;;;;;;;7.70;2.88;;;4.10;99.90;;;;;;5083119;28;20091;-66
2023/02/28 00:44:32;;;;;;;10.35;3.13;;;4.00;99.90;;;;;;5079397;28;20047;-66
2023/02/28 00:46:59;;;;;;;7.30;3.00;;;4.10;99.90;;;;;;5077369;28;20493;-65
2023/02/28 00:49:26;;;;;;;11.45;3.15;;;4.10;99.90;;;;;;5080379;28;20055;-66
2023/02/28 00:51:55;;;;;;;8.23;3.22;;;4.00;99.90;;;;;;5078163;28;20039;-64
2023/02/28 00:54:22;;;;;;;8.15;3.08;;;4.10;99.90;;;;;;5069306;28;20036;-65
2023/02/28 00:56:48;;;;;;;10.85;3.10;;;4.10;99.90;;;;;;5073430;28;20367;-67
2023/02/28 00:59:15;;;;;;;9.52;2.92;;;4.10;99.90;;;;;;5084875;28;20044;-66
2023/02/28 01:01:42;;;;;;;8.73;3.30;;;4.10;99.90;;;;;;5080813;28;20036;-66
2023/02/28 01:04:08;;;;;;;10.93;3.42;;;4.00;99.90;;;;;;5082797;28;20032;-66
2023/02/28 01:06:34;;;;;;;10.00;3.20;;;4.10;99.90;;;;;;5075808;28;20040;-65
2023/02/28 01:09:00;;;;;;;5.70;2.50;;;4.00;99.90;;;;;;5077843;28;20112;-65
2023/02/28 01:11:26;;;;;;;6.82;2.50;;;4.00;99.90;;;;;;5067932;28;20055;-65
2023/02/28 01:13:52;;;;;;;5.93;2.83;;;4.00;99.90;;;;;;5084334;28;20036;-66
2023/02/28 01:16:18;;;;;;;8.93;2.60;;;4.10;99.90;;;;;;5080521;28;20036;-66
2023/02/28 01:18:44;;;;;;;7.97;2.80;;;4.10;99.90;;;;;;5084947;28;20033;-64
2023/02/28 01:21:12;;;;;;;9.00;2.45;;;4.10;99.90;;;;;;5066013;28;20036;-65
2023/02/28 01:23:39;;;;;;;8.95;2.92;;;4.10;99.90;;;;;;5086221;28;20036;-66
2023/02/28 01:26:11;;;;;;;9.13;2.30;;;4.10;99.90;;;;;;5080046;28;20110;-65
2023/02/28 01:28:37;;;;;;;6.20;2.45;;;4.10;99.90;;;;;;5077859;28;20036;-65
2023/02/28 01:31:03;;;;;;;4.28;2.10;;;4.10;99.90;;;;;;5082463;28;20040;-66
2023/02/28 01:33:29;;;;;;;5.07;2.78;;;4.10;99.90;;;;;;5082263;28;20450;-65
2023/02/28 01:35:59;;;;;;;6.20;2.25;;;4.10;99.90;;;;;;5076506;28;20070;-66
2023/02/28 01:38:25;;;;;;;5.53;2.75;;;4.10;99.90;;;;;;5079200;28;20370;-65
2023/02/28 01:40:51;;;;;;;5.35;2.22;;;4.10;99.90;;;;;;5064726;28;20098;-66
2023/02/28 01:43:31;;;;;;;6.13;2.30;;;4.10;99.90;;;;;;5067133;28;20075;-66
2023/02/28 01:45:59;;;;;;;5.47;2.28;;;4.10;99.90;;;;;;5068708;28;20452;-66
2023/02/28 01:48:32;;;;;;;7.20;2.28;;;4.10;99.90;;;;;;5069676;28;20126;-65
2023/02/28 01:51:05;;;;;;;4.22;2.03;;;4.10;99.90;;;;;;5079752;28;20400;-66
2023/02/28 01:53:36;;;;;;;4.05;1.92;;;4.00;99.90;;;;;;5086546;28;20468;-66
2023/02/28 01:56:06;;;;;;;4.72;2.28;;;4.00;99.90;;;;;;5069871;28;20044;-66
2023/02/28 01:58:32;;;;;;;5.32;2.47;;;4.00;99.90;;;;;;5085294;28;20041;-66
2023/02/28 02:00:57;;;;;;;5.00;2.25;;;4.00;99.90;;;;;;5084082;28;20362;-64
2023/02/28 02:03:23;;;;;;;5.80;2.92;;;4.00;99.90;;;;;;5081686;28;20068;-65
2023/02/28 02:05:49;;;;;;;3.95;2.53;;;4.00;99.90;;;;;;5085112;28;20443;-65
2023/02/28 02:08:23;;;;;;;6.13;2.58;;;3.90;99.90;;;;;;5087618;28;20047;-65
2023/02/28 02:10:53;;;;;;;3.97;2.72;;;4.00;99.90;;;;;;5087570;28;20100;-66
2023/02/28 02:13:40;;;;;;;8.77;2.72;;;3.90;99.90;;;;;;5080644;28;20024;-66
2023/02/28 02:16:43;;;;;;;3.63;2.03;;;3.90;99.90;;;;;;5080525;28;20039;-65
2023/02/28 02:19:35;;;;;;;6.30;2.75;;;3.80;99.90;;;;;;5082285;28;20396;-65
2023/02/28 02:22:18;;;;;;;7.10;2.83;;;3.80;99.90;;;;;;5079354;28;20134;-65
2023/02/28 02:25:10;;;;;;;7.03;2.90;;;3.70;99.90;;;;;;5079228;28;20033;-65
2023/02/28 02:28:03;;;;;;;7.72;2.97;;;3.70;99.90;;;;;;5085619;28;20032;-65
2023/02/28 02:30:29;;;;;;;5.60;2.42;;;3.70;99.90;;;;;;5069264;28;20055;-65
2023/02/28 02:33:10;;;;;;;3.85;2.28;;;3.60;99.90;;;;;;5087890;28;20576;-65
2023/02/28 02:36:00;;;;;;;4.85;2.53;;;3.60;99.90;;;;;;5070829;28;20446;-67
2023/02/28 02:38:40;;;;;;;5.50;2.40;;;3.60;99.90;;;;;;5084667;28;20036;-66
2023/02/28 02:41:19;;;;;;;6.95;3.03;;;3.50;99.90;;;;;;5083490;28;20047;-66
2023/02/28 02:43:51;;;;;;;4.00;2.22;;;3.50;99.90;;;;;;5079789;28;20072;-67
2023/02/28 02:46:38;;;;;;;7.18;2.50;;;3.50;99.90;;;;;;5086818;28;20040;-65
2023/02/28 02:49:09;;;;;;;5.07;2.85;;;3.40;99.90;;;;;;5063407;28;20037;-67
2023/02/28 02:51:36;;;;;;;7.82;3.05;;;3.40;99.90;;;;;;5078290;28;20036;-65
2023/02/28 02:54:07;;;;;;;6.20;3.05;;;3.40;99.90;;;;;;5082619;28;20064;-66
2023/02/28 02:56:35;;;;;;;6.28;3.50;;;3.40;99.90;;;;;;5064721;28;20090;-65
2023/02/28 02:59:06;;;;;;;6.88;3.30;;;3.40;99.90;;;;;;5085443;28;20036;-67
2023/02/28 03:01:33;;;;;;;6.35;3.67;;;3.40;99.90;;;;;;5079508;28;20261;-66
2023/02/28 03:04:08;;;;;;;7.78;3.28;;;3.30;99.90;;;;;;5063871;28;20051;-67
2023/02/28 03:06:35;;;;;;;8.50;3.97;;;3.30;99.90;;;;;;5083482;28;20040;-66
2023/02/28 03:09:01;;;;;;;8.25;4.10;;;3.30;99.90;;;;;;5084022;28;20046;-67
2023/02/28 03:11:28;;;;;;;7.80;3.53;;;3.20;99.90;;;;;;5056974;28;20068;-67
2023/02/28 03:14:38;;;;;;;5.68;3.92;;;3.30;99.90;;;;;;5067426;28;20038;-66
2023/02/28 03:17:22;;;;;;;8.93;3.65;;;3.20;99.90;;;;;;5037554;28;20040;-67
2023/02/28 03:20:13;;;;;;;6.82;4.38;;;3.20;99.90;;;;;;5069464;28;20264;-67
2023/02/28 03:22:49;;;;;;;10.20;5.53;;;3.20;99.90;;;;;;5065214;28;20443;-67
2023/02/28 03:25:40;;;;;;;10.00;6.10;;;3.20;99.90;;;;;;5084505;28;20082;-67
2023/02/28 03:28:16;;;;;;;12.23;6.32;;;3.20;99.90;;;;;;5086629;28;20257;-67
2023/02/28 03:31:09;;;;;;;8.73;6.03;;;3.10;99.90;;;;;;5071121;28;20128;-67
2023/02/28 03:33:54;;;;;;;9.40;5.95;;;3.10;99.90;;;;;;5082219;28;20052;-67
2023/02/28 03:36:25;;;;;;;11.85;6.68;;;3.10;99.90;;;;;;5070057;28;20476;-67
2023/02/28 03:38:54;;;;;;;10.13;7.15;;;3.10;99.90;;;;;;5069408;28;20047;-68
2023/02/28 03:41:31;;;;;;;13.73;7.95;;;3.10;99.90;;;;;;5058247;28;20075;-68
2023/02/28 03:44:20;;;;;;;14.98;8.40;;;3.10;99.90;;;;;;5073778;28;20071;-67
2023/02/28 03:47:02;;;;;;;17.50;8.85;;;3.10;99.90;;;;;;5081731;28;20068;-68
2023/02/28 03:49:40;;;;;;;20.90;9.77;;;3.10;99.90;;;;;;5055649;28;20189;-68
2023/02/28 03:52:07;;;;;;;15.85;9.07;;;3.10;99.90;;;;;;5069877;28;20379;-67
2023/02/28 03:54:42;;;;;;;16.42;9.75;;;3.00;99.90;;;;;;5067345;28;20048;-68
2023/02/28 03:57:34;;;;;;;15.50;9.32;;;3.00;99.90;;;;;;5067553;28;20039;-67
2023/02/28 04:00:05;;;;;;;20.20;10.95;;;3.00;99.90;;;;;;5058840;28;20057;-67
2023/02/28 04:02:32;;;;;;;19.67;11.15;;;3.00;99.90;;;;;;5066727;28;20237;-68
2023/02/28 04:04:59;;;;;;;18.80;11.25;;;3.00;99.90;;;;;;5070048;28;20487;-67
2023/02/28 04:07:28;;;;;;;15.93;11.15;;;3.00;99.90;;;;;;5062258;28;20071;-67
2023/02/28 04:09:54;;;;;;;16.25;10.60;;;3.00;99.90;;;;;;5067608;28;20073;-68
2023/02/28 04:12:21;;;;;;;17.05;11.35;;;3.00;99.90;;;;;;5081689;28;20347;-67
2023/02/28 04:14:46;;;;;;;16.17;11.48;;;3.00;99.90;;;;;;5065185;28;20485;-66
2023/02/28 04:17:12;;;;;;;19.05;11.43;;;3.00;99.90;;;;;;5065946;28;20123;-67
2023/02/28 04:19:37;;;;;;;17.58;10.80;;;3.00;99.90;;;;;;5067293;28;20047;-67
2023/02/28 04:22:03;;;;;;;16.38;11.30;;;3.00;99.90;;;;;;5066751;28;20054;-67
2023/02/28 04:24:29;;;;;;;20.00;11.88;;;3.00;99.90;;;;;;5067171;28;20158;-67
2023/02/28 04:26:56;;;;;;;16.90;11.70;;;2.90;99.90;;;;;;5065323;28;20032;-67
2023/02/28 04:29:32;;;;;;;19.27;12.43;;;2.90;99.90;;;;;;5063397;28;20086;-68
2023/02/28 04:31:59;;;;;;;18.25;12.50;;;2.90;99.90;;;;;;5065145;28;20032;-68
2023/02/28 04:34:27;;;;;;;18.67;12.45;;;2.90;99.90;;;;;;5062646;28;20040;-68
2023/02/28 04:36:55;;;;;;;23.90;12.70;;;2.90;99.90;;;;;;5083110;28;20511;-69
2023/02/28 04:39:22;;;;;;;18.10;12.32;;;2.90;99.90;;;;;;5061425;28;20370;-69
2023/02/28 04:41:49;;;;;;;19.33;12.60;;;2.90;99.90;;;;;;5065096;28;20048;-68
2023/02/28 04:44:15;;;;;;;23.17;14.00;;;2.90;99.90;;;;;;5066349;28;20062;-69
2023/02/28 04:46:41;;;;;;;19.15;12.65;;;2.90;99.90;;;;;;5062490;28;20151;-68
2023/02/28 04:49:08;;;;;;;18.45;12.32;;;2.90;99.90;;;;;;5078302;28;20466;-68
2023/02/28 04:51:34;;;;;;;19.75;13.35;;;2.90;99.90;;;;;;5085088;28;20051;-69
2023/02/28 04:53:59;;;;;;;19.73;12.63;;;2.90;99.90;;;;;;5068021;28;20040;-68
2023/02/28 04:56:25;;;;;;;20.88;13.25;;;2.80;99.90;;;;;;5052686;28;20514;-68
2023/02/28 04:58:52;;;;;;;18.65;12.80;;;2.90;99.90;;;;;;5062033;28;20659;-68
2023/02/28 05:01:30;;;;;;;22.13;12.45;;;2.80;99.90;;;;;;5064188;28;20404;-67
2023/02/28 05:03:58;;;;;;;18.95;12.95;;;2.80;99.90;;;;;;5084550;28;20149;-68
2023/02/28 05:06:26;;;;;;;20.40;12.98;;;2.70;99.90;;;;;;5066507;28;20479;-68
2023/02/28 05:08:53;;;;;;;19.08;13.23;;;2.70;99.90;;;;;;5077673;28;20131;-68
2023/02/28 05:11:38;;;;;;;21.58;13.82;;;2.80;99.90;;;;;;5065887;28;20143;-68
2023/02/28 05:14:04;;;;;;;;;;;2.70;99.90;;;;;;5068562;28;20154;-69
2023/02/28 05:16:31;;;;;;;17.75;12.80;;;2.60;99.90;;;;;;5065799;28;19920;-69
2023/02/28 05:18:57;;;;;;;20.65;12.65;;;2.60;99.90;;;;;;5063451;28;20484;-68
2023/02/28 05:21:31;;;;;;;23.73;13.50;;;2.60;99.90;;;;;;5066623;28;20082;-69
2023/02/28 05:24:03;;;;;;;19.42;12.85;;;2.60;99.90;;;;;;5050706;28;20058;-69
2023/02/28 05:26:29;;;;;;;18.95;13.43;;;2.60;99.90;;;;;;5060197;28;20039;-69
2023/02/28 05:28:55;;;;;;;20.85;13.82;;;2.50;99.90;;;;;;5067646;28;20040;-69
2023/02/28 05:31:22;;;;;;;19.50;13.02;;;2.50;99.90;;;;;;5069098;28;20512;-69
2023/02/28 05:33:47;;;;;;;19.27;12.02;;;2.50;99.90;;;;;;5063263;28;20045;-68
2023/02/28 05:36:13;;;;;;;19.80;13.23;;;2.50;99.90;;;;;;5072668;28;20047;-68
2023/02/28 05:38:39;;;;;;;21.13;13.35;;;2.50;99.90;;;;;;5057302;28;20079;-68
2023/02/28 05:41:09;;;;;;;21.27;13.88;;;2.50;99.90;;;;;;5057187;28;20324;-68
2023/02/28 05:43:36;;;;;;;20.45;14.23;;;2.50;99.90;;;;;;5074500;28;20083;-68
2023/02/28 05:46:07;;;;;;;21.55;12.85;;;2.50;99.90;;;;;;5084379;28;20115;-68
2023/02/28 05:48:35;;;;;;;19.05;13.07;;;2.50;99.90;;;;;;5074962;28;20102;-68
2023/02/28 05:51:01;;;;;;;16.85;13.65;;;2.50;99.90;;;;;;5069172;28;20040;-68
2023/02/28 05:53:26;;;;;;;23.90;14.35;;;2.50;99.90;;;;;;5073900;28;20047;-67
2023/02/28 05:55:52;;;;;;;20.13;13.23;;;2.40;99.90;;;;;;5070448;28;20036;-68
2023/02/28 05:58:18;;;;;;;22.33;12.98;;;2.50;99.90;;;;;;5074332;28;20036;-68
2023/02/28 06:00:44;;;;;;;18.55;13.50;;;2.50;99.90;;;;;;5066441;28;20116;-68
2023/02/28 06:03:10;;;;;;;21.23;13.40;;;2.50;99.90;;;;;;5089762;28;20051;-67
2023/02/28 06:05:35;;;;;;;22.27;13.95;;;2.40;99.90;;;;;;5070063;28;20142;-67
2023/02/28 06:08:01;;;;;;;22.77;13.77;;;2.40;99.90;;;;;;5086274;28;20071;-68
2023/02/28 06:10:27;;;;;;;21.48;13.35;;;2.40;99.90;;;;;;5089108;28;20039;-68
2023/02/28 06:12:53;;;;;;;19.13;13.63;;;2.40;99.90;;;;;;5061996;28;20158;-67
2023/02/28 06:15:20;;;;;;;22.88;13.98;;;2.40;99.90;;;;;;5088449;28;20111;-68
2023/02/28 06:17:46;;;;;;;23.52;13.73;;;2.40;99.90;;;;;;5067330;28;20111;-68
2023/02/28 06:20:15;;;;;;;20.85;13.60;;;2.30;99.90;;;;;;5065128;28;20040;-67
2023/02/28 06:22:41;;;;;;;20.10;12.88;;;2.30;99.90;;;;;;5072043;28;20036;-67
2023/02/28 06:25:07;;;;;;;17.00;12.38;;;2.30;99.90;;;;;;5056241;28;20100;-67
2023/02/28 06:27:34;;;;;;;17.85;12.35;;;2.40;99.90;;;;;;5066867;28;20055;-67
2023/02/28 06:29:59;;;;;;;18.17;12.10;;;2.40;99.90;;;;;;5081649;28;20399;-67
2023/02/28 06:32:25;;;;;;;18.52;12.90;;;2.30;99.90;;;;;;5071566;28;20096;-66
2023/02/28 06:34:51;;;;;;;21.45;12.73;;;2.30;99.90;;;;;;5084076;28;20472;-66
2023/02/28 06:37:17;;;;;;;19.25;12.32;;;2.40;99.90;;;;;;5085361;28;20032;-66
2023/02/28 06:39:43;;;;;;;17.02;12.15;;;2.30;99.90;;;;;;5080458;28;20123;-67
2023/02/28 06:42:09;;;;;;;20.20;12.73;;;2.30;99.90;;;;;;5067382;28;20048;-66
2023/02/28 06:44:35;;;;;;;23.90;13.43;;;2.30;99.90;;;;;;5088237;28;20142;-66
2023/02/28 06:47:06;;;;;;;18.77;12.88;;;2.30;99.90;;;;;;5077908;28;20491;-67
2023/02/28 06:49:34;;;;;;;19.08;11.50;;;2.40;99.90;;;;;;5074417;28;20476;-67
2023/02/28 06:52:00;;;;;;;18.65;12.75;;;2.30;99.90;;;;;;5069551;28;20129;-66
2023/02/28 06:54:25;;;;;;;19.67;13.30;;;2.30;99.90;;;;;;5070874;28;20064;-66
2023/02/28 06:56:53;;;;;;;19.95;14.57;;;2.30;99.90;;;;;;5072358;28;20063;-66
2023/02/28 06:59:19;;;;;;;22.77;13.15;;;2.30;99.90;;;;;;5070544;28;20518;-66
2023/02/28 07:01:45;;;;;;;19.75;12.57;;;2.30;99.90;;;;;;5090866;28;20036;-67
2023/02/28 07:04:10;;;;;;;21.02;13.57;;;2.30;99.90;;;;;;5084911;28;20024;-66
2023/02/28 07:06:36;;;;;;;21.00;13.60;;;2.40;99.90;;;;;;5075048;28;20484;-66
2023/02/28 07:09:03;;;;;;;20.63;13.23;;;2.40;99.90;;;;;;5091640;28;20047;-67
2023/02/28 07:11:29;;;;;;;20.65;13.82;;;2.40;99.90;;;;;;5072978;28;20547;-66
2023/02/28 07:13:55;;;;;;;22.13;13.40;;;2.50;99.90;;;;;;5075642;28;20090;-68
2023/02/28 07:16:22;;;;;;;26.60;13.88;;;2.40;99.90;;;;;;5089356;28;20032;-66
2023/02/28 07:18:48;;;;;;;20.67;12.13;;;2.40;99.90;;;;;;5074491;28;20047;-66
2023/02/28 07:21:15;;;;;;;19.40;13.55;;;2.40;99.90;;;;;;5086049;28;20594;-67
2023/02/28 07:23:44;;;;;;;22.20;13.57;;;2.40;99.90;;;;;;5077264;28;20047;-66
2023/02/28 07:26:14;;;;;;;22.95;13.30;;;2.40;99.90;;;;;;5074226;28;20044;-66
2023/02/28 07:28:44;;;;;;;16.63;12.85;;;2.50;99.90;;;;;;5074608;28;20058;-66
2023/02/28 07:31:11;;;;;;;22.27;13.15;;;2.50;99.90;;;;;;5071134;28;20061;-66
2023/02/28 07:33:38;;;;;;;22.45;13.32;;;2.50;99.90;;;;;;5087503;28;20097;-66
2023/02/28 07:36:06;;;;;;;18.90;13.20;;;2.50;99.90;;;;;;5070769;28;20032;-66
2023/02/28 07:38:37;;;;;;;21.20;12.93;;;2.50;99.90;;;;;;5084934;28;20047;-66
2023/02/28 07:41:06;;;;;;;18.10;13.60;;;2.50;99.90;;;;;;5086701;28;20359;-67
2023/02/28 07:43:32;;;;;;;17.10;13.35;;;2.50;99.90;;;;;;5073865;28;20044;-66
2023/02/28 07:46:10;;;;;;;21.75;13.30;;;2.50;99.90;;;;;;5070542;28;20040;-66
2023/02/28 07:48:37;;;;;;;17.23;12.02;;;2.60;99.90;;;;;;5031509;28;1113080;-65
2023/02/28 07:51:03;;;;;;;17.20;11.98;;;2.60;99.90;;;;;;5082815;28;20063;-66
2023/02/28 07:53:29;;;;;;;18.83;12.95;;;2.60;99.90;;;;;;5071347;28;20062;-66
2023/02/28 07:55:56;;;;;;;17.05;12.57;;;2.60;99.90;;;;;;5068018;28;20044;-67
2023/02/28 07:58:23;;;;;;;19.00;13.65;;;2.60;99.90;;;;;;5066133;28;20032;-66
2023/02/28 08:00:49;;;;;;;22.13;14.55;;;2.70;99.90;;;;;;5072469;28;20131;-66
2023/02/28 08:03:16;;;;;;;19.40;13.73;;;2.80;99.90;;;;;;5068296;28;20166;-66
2023/02/28 08:05:42;;;;;;;18.38;14.25;;;3.10;99.90;;;;;;5067159;28;20128;-67
2023/02/28 08:08:08;;;;;;;21.33;13.40;;;3.10;99.90;;;;;;5088800;28;20119;-66
2023/02/28 08:10:34;;;;;;;17.30;11.88;;;3.10;99.90;;;;;;5071057;28;20175;-66
2023/02/28 08:13:00;;;;;;;19.27;12.65;;;3.20;99.90;;;;;;5089616;28;20024;-66
2023/02/28 08:15:26;;;;;;;15.32;12.00;;;3.20;99.90;;;;;;5072446;28;20059;-66
2023/02/28 08:17:52;;;;;;;18.38;12.32;;;3.50;99.90;;;;;;5076077;28;20044;-65
2023/02/28 08:20:18;;;;;;;13.77;11.48;;;4.30;99.90;;;;;;5071314;28;20044;-66
2023/02/28 08:22:44;;;;;;;16.60;12.60;;;4.70;99.90;;;;;;5070247;28;20449;-66
2023/02/28 08:25:10;;;;;;;14.95;11.43;;;4.90;99.90;;;;;;5076177;28;20048;-66
2023/02/28 08:27:36;;;;;;;15.82;11.93;;;5.00;99.90;;;;;;5073212;28;20373;-65
2023/02/28 08:30:03;;;;;;;14.88;10.55;;;5.00;99.90;;;;;;5075236;28;20142;-66
2023/02/28 08:32:29;;;;;;;15.95;10.68;;;5.00;99.90;;;;;;5075888;28;20073;-67
2023/02/28 08:34:55;;;;;;;13.80;10.95;;;4.90;99.90;;;;;;5072020;28;20115;-66
2023/02/28 08:37:20;;;;;;;15.65;10.82;;;4.90;99.90;;;;;;5075208;28;20445;-65
2023/02/28 08:39:46;;;;;;;15.25;9.75;;;4.90;99.90;;;;;;5074603;28;20051;-66
2023/02/28 08:42:12;;;;;;;12.65;10.20;;;4.90;99.90;;;;;;5085851;28;20032;-66
2023/02/28 08:44:37;;;;;;;14.98;10.60;;;4.80;99.90;;;;;;5082765;28;20499;-66
2023/02/28 08:47:03;;;;;;;12.60;10.15;;;4.70;99.90;;;;;;5088307;28;20420;-66
2023/02/28 08:49:29;;;;;;;15.90;10.70;;;4.70;99.90;;;;;;5063727;28;20067;-67
2023/02/28 08:51:56;;;;;;;13.48;8.88;;;4.90;99.90;;;;;;5087347;28;20118;-67
2023/02/28 08:54:23;;;;;;;14.88;9.50;;;5.10;99.90;;;;;;5061527;28;20043;-68
2023/02/28 08:56:49;;;;;;;14.75;10.10;;;5.30;99.90;;;;;;5083840;28;20503;-67
2023/02/28 08:59:15;;;;;;;14.80;9.85;;;5.40;99.90;;;;;;5089861;28;20490;-68
2023/02/28 09:01:41;;;;;;;13.57;9.57;;;5.50;99.90;;;;;;5070035;28;20999;-68
2023/02/28 09:04:09;;;;;;;13.95;9.95;;;5.60;99.90;;;;;;5069949;28;20041;-67
2023/02/28 09:06:35;;;;;;;12.75;9.57;;;5.80;99.90;;;;;;5081467;28;20043;-67
2023/02/28 09:09:02;;;;;;;13.32;9.95;;;6.10;99.90;;;;;;5088444;28;20476;-67
2023/02/28 09:11:29;;;;;;;11.90;9.30;;;6.50;99.90;;;;;;5080126;28;20041;-67
2023/02/28 09:13:57;;;;;;;10.95;9.30;;;6.80;99.90;;;;;;5070886;28;20032;-68
2023/02/28 09:16:23;;;;;;;12.73;9.25;;;6.90;99.90;;;;;;5069990;28;20036;-68
2023/02/28 09:18:48;;;;;;;12.63;9.48;;;6.90;99.90;;;;;;5067133;28;20052;-67
2023/02/28 09:21:16;;;;;;;13.52;10.07;;;7.00;99.90;;;;;;5064613;28;20044;-67
2023/02/28 09:23:44;;;;;;;11.43;9.55;;;7.20;99.90;;;;;;5082191;28;20036;-66
2023/02/28 09:26:17;;;;;;;13.00;9.50;;;7.60;99.90;;;;;;5081575;28;20094;-67
2023/02/28 09:28:43;;;;;;;10.52;6.85;;;7.80;99.90;;;;;;5063682;28;20766;-66
2023/02/28 09:31:14;;;;;;;9.88;6.00;;;7.80;99.90;;;;;;5072123;28;20040;-66
2023/02/28 09:33:40;;;;;;;9.35;5.97;;;7.90;99.90;;;;;;5069941;28;20508;-67
2023/02/28 09:36:06;;;;;;;9.32;6.70;;;8.10;99.90;;;;;;5062039;28;20124;-67
2023/02/28 09:38:32;;;;;;;8.68;6.60;;;9.10;99.90;;;;;;5084149;28;20044;-67
2023/02/28 09:41:35;;;;;;;10.43;6.82;;;10.40;99.90;;;;;;5074935;28;20040;-67
2023/02/28 09:44:03;;;;;;;8.20;6.03;;;11.60;99.90;;;;;;5069426;28;20452;-66
2023/02/28 09:46:34;;;;;;;8.88;6.57;;;12.30;99.90;;;;;;5081881;28;20515;-66
2023/02/28 09:49:12;;;;;;;6.60;5.28;;;13.00;99.90;;;;;;5064669;28;20515;-67
2023/02/28 09:51:48;;;;;;;6.55;4.95;;;13.50;99.90;;;;;;5078255;28;20036;-66
2023/02/28 09:54:27;;;;;;;6.93;5.28;;;14.10;99.90;;;;;;5085219;28;20150;-67
2023/02/28 09:56:56;;;;;;;7.18;5.35;;;14.90;99.90;;;;;;5073117;28;20115;-67
2023/02/28 09:59:44;;;;;;;7.68;5.97;;;15.50;99.90;;;;;;5080949;28;20032;-67
2023/02/28 10:02:19;;;;;;;8.55;5.60;;;16.20;99.90;;;;;;5061723;28;20194;-67
2023/02/28 10:04:57;;;;;;;8.15;4.82;;;16.50;99.90;;;;;;5069720;28;20048;-67
2023/02/28 10:07:34;;;;;;;5.82;5.00;;;16.60;99.90;;;;;;5085746;28;20040;-67
2023/02/28 10:10:04;;;;;;;5.68;5.10;;;16.60;99.90;;;;;;5084178;28;20162;-67
2023/02/28 10:12:32;;;;;;;6.25;4.80;;;16.70;99.90;;;;;;5083545;28;20040;-67
2023/02/28 10:14:59;;;;;;;6.65;4.70;;;17.00;99.90;;;;;;5084480;28;20075;-66
2023/02/28 10:17:38;;;;;;;5.50;4.35;;;16.90;98.50;;;;;;5074055;28;20429;-66
2023/02/28 10:20:31;;;;;;;6.43;4.80;;;16.20;97.60;;;;;;5083874;28;20576;-67
2023/02/28 10:22:59;;;;;;;8.23;5.32;;;16.40;97.70;;;;;;5085204;28;20114;-66
2023/02/28 10:25:29;;;;;;;7.10;5.65;;;16.70;97.30;;;;;;5085771;28;20078;-66
2023/02/28 10:28:01;;;;;;;5.85;4.90;;;17.00;96.00;;;;;;5065226;28;20349;-66
2023/02/28 10:30:27;;;;;;;6.82;4.63;;;16.60;94.70;;;;;;5079258;28;20107;-67
2023/02/28 10:32:54;;;;;;;7.95;4.88;;;15.10;94.50;;;;;;5085959;28;20035;-66
2023/02/28 10:35:25;;;;;;;6.97;4.63;;;13.50;94.10;;;;;;5088202;28;20054;-67
2023/02/28 10:37:58;;;;;;;6.38;4.50;;;12.20;95.10;;;;;;5082016;28;20036;-66
2023/02/28 10:40:24;;;;;;;5.28;4.15;;;11.70;97.20;;;;;;5085161;28;20046;-66
2023/02/28 10:42:58;;;;;;;7.13;4.15;;;12.20;97.20;;;;;;5073218;28;20122;-66
2023/02/28 10:45:26;;;;;;;5.25;3.70;;;12.60;94.20;;;;;;5087736;28;20040;-66
2023/02/28 10:47:59;;;;;;;6.75;3.72;;;13.10;95.10;;;;;;5065499;28;20417;-66
2023/02/28 10:50:49;;;;;;;5.63;3.50;;;13.80;94.50;;;;;;5062186;28;20237;-67
2023/02/28 10:53:32;;;;;;;3.72;2.65;;;14.60;94.00;;;;;;5071159;28;20045;-67
2023/02/28 10:55:57;;;;;;;4.25;2.70;;;15.20;93.00;;;;;;5064730;28;20221;-67
2023/02/28 10:58:26;;;;;;;5.22;2.60;;;15.70;93.40;;;;;;5059404;28;20047;-66
2023/02/28 11:00:52;;;;;;;3.70;2.38;;;16.30;93.10;;;;;;5062783;28;20338;-67
2023/02/28 11:03:35;;;;;;;5.72;2.40;;;16.70;92.30;;;;;;5068190;28;20414;-68
2023/02/28 11:06:16;;;;;;;4.15;2.53;;;17.00;85.60;;;;;;5062489;28;20045;-67
2023/02/28 11:08:48;;;;;;;4.18;2.60;;;17.30;90.00;;;;;;5066918;28;20040;-68
2023/02/28 11:11:16;;;;;;;4.53;2.55;;;17.50;90.20;;;;;;5065694;28;20045;-66
2023/02/28 11:13:44;;;;;;;3.95;2.08;;;17.80;88.50;;;;;;5067879;28;20443;-68
2023/02/28 11:16:12;;;;;;;2.90;1.73;;;18.10;83.60;;;;;;5066641;28;20036;-67
2023/02/28 11:18:52;;;;;;;2.38;1.63;;;18.10;82.20;;;;;;5065673;28;20063;-66
2023/02/28 11:21:28;;;;;;;2.88;1.52;;;18.10;79.50;;;;;;5062486;28;20041;-66
2023/02/28 11:24:28;;;;;;;3.40;1.67;;;18.10;74.30;;;;;;5066984;28;20044;-66
2023/02/28 11:26:55;;;;;;;3.42;1.60;;;18.10;73.40;;;;;;5057631;28;20052;-66
2023/02/28 11:29:25;;;;;;;5.05;1.58;;;18.20;74.50;;;;;;5063805;28;20044;-67
2023/02/28 11:32:07;;;;;;;3.15;1.80;;;18.40;71.60;;;;;;5066401;28;20045;-66
2023/02/28 11:34:32;;;;;;;2.03;1.40;;;18.20;69.00;;;;;;5061466;28;20040;-67
2023/02/28 11:37:00;;;;;;;3.17;1.70;;;17.90;69.70;;;;;;5059133;28;20393;-66
2023/02/28 11:39:27;;;;;;;3.20;1.55;;;17.30;67.60;;;;;;5064386;28;20048;-67
2023/02/28 11:42:04;;;;;;;2.95;1.70;;;17.00;66.30;;;;;;5065039;28;20036;-67
2023/02/28 11:44:39;;;;;;;3.38;1.98;;;16.20;67.30;;;;;;5063683;28;20089;-67
2023/02/28 11:47:14;;;;;;;2.92;1.88;;;16.30;67.50;;;;;;5062105;28;20044;-66
2023/02/28 11:50:14;;;;;;;2.90;1.58;;;16.40;65.60;;;;;;5082864;28;20053;-67
2023/02/28 11:52:50;;;;;;;3.47;1.75;;;16.60;66.10;;;;;;5063727;28;20048;-67
2023/02/28 11:55:39;;;;;;;3.40;1.80;;;16.80;68.90;;;;;;5061871;28;20421;-67
2023/02/28 11:58:14;;;;;;;2.63;1.33;;;17.20;67.40;;;;;;5073823;28;20032;-67
2023/02/28 12:01:15;;;;;;;2.65;1.50;;;17.40;66.90;;;;;;5083683;28;20059;-67
2023/02/28 12:03:52;;;;;;;2.17;1.60;;;17.00;63.50;;;;;;5059119;28;20523;-67
2023/02/28 12:06:43;;;;;;;4.10;2.08;;;16.80;65.90;;;;;;5082968;28;20111;-67
2023/02/28 12:09:32;;;;;;;3.10;1.98;;;16.60;62.60;;;;;;5082604;28;20088;-67
2023/02/28 12:12:43;;;;;;;2.40;1.73;;;16.50;62.80;;;;;;5080680;28;20079;-67
2023/02/28 12:15:24;;;;;;;4.45;1.73;;;16.60;66.80;;;;;;5085948;28;20044;-68
2023/02/28 12:17:52;;;;;;;2.22;1.60;;;16.80;65.50;;;;;;5085887;28;20039;-68
2023/02/28 12:20:35;;;;;;;4.25;2.13;;;16.70;64.90;;;;;;5065900;28;20040;-68
2023/02/28 12:23:18;;;;;;;2.47;1.60;;;16.60;63.40;;;;;;5063067;28;20044;-68
2023/02/28 12:26:13;;;;;;;3.35;1.77;;;16.70;63.20;;;;;;5076519;28;20115;-68
2023/02/28 12:28:50;;;;;;;;;;;16.20;59.70;;;;;;5065434;28;20040;-67
2023/02/28 12:31:36;;;;;;;2.88;1.77;;;15.90;60.80;;;;;;5070191;28;19967;-68
2023/02/28 12:34:09;;;;;;;4.70;2.03;;;15.70;62.10;;;;;;5068473;28;20067;-68
2023/02/28 12:36:37;;;;;;;2.92;2.03;;;15.60;63.30;;;;;;5080890;28;20544;-68
2023/02/28 12:39:11;;;;;;;3.63;2.28;;;15.40;62.80;;;;;;5081348;28;20032;-68
2023/02/28 12:41:49;;;;;;;5.20;1.73;;;15.00;63.40;;;;;;5065962;28;20047;-67
2023/02/28 12:44:26;;;;;;;3.08;1.80;;;14.90;63.10;;;;;;5068960;28;20123;-67
2023/02/28 12:46:56;;;;;;;3.45;2.08;;;14.60;62.90;;;;;;5083269;28;20040;-66
2023/02/28 12:49:39;;;;;;;3.33;1.70;;;14.60;64.30;;;;;;5083897;28;20079;-67
2023/02/28 12:52:06;;;;;;;4.32;2.00;;;15.10;64.20;;;;;;5068265;28;20127;-67
2023/02/28 12:54:52;;;;;;;2.83;1.90;;;15.20;61.90;;;;;;5063280;28;20391;-67
2023/02/28 12:57:24;;;;;;;3.03;1.77;;;14.60;63.20;;;;;;5081668;28;20064;-67
2023/02/28 13:00:02;;;;;;;3.40;2.58;;;13.30;65.30;;;;;;5071844;28;20046;-67
2023/02/28 13:02:39;;;;;;;3.97;2.30;;;11.90;66.40;;;;;;5069541;28;20075;-67
2023/02/28 13:05:18;;;;;;;2.70;1.95;;;10.80;69.10;;;;;;5081187;28;20460;-67